sensor_id;sensor_type;location;lat;lon;timestamp;P1;P2;P0
49644;PMS5003;36494;50.730;-1.932;2022-10-16T00:00:00;4;4;
49644;PMS5003;36494;50.730;-1.932;2022-10-16T00:02:26;5;4;
49644;PMS5003;36494;50.730;-1.932;2022-10-16T00:04:52;2;1;
49644;PMS5003;36494;50.730;-1.932;2022-10-16T00:07:17;3;3;
49644;PMS5003;36494;50.730;-1.932;2022-10-16T00:09:42;2;2;
49644;PMS5003;36494;50.730;-1.932;2022-10-16T00:12:08;1;1;
49644;PMS5003;36494;50.730;-1.932;2022-10-16T00:14:33;2;2;
49644;PMS5003;36494;50.730;-1.932;2022-10-16T00:16:58;2;2;
49644;PMS5003;36494;50.730;-1.932;2022-10-16T00:19:24;2;2;
49644;PMS5003;36494;50.730;-1.932;2022-10-16T00:21:49;4;2;
49644;PMS5003;36494;50.730;-1.932;2022-10-16T00:24:15;3;3;
49644;PMS5003;36494;50.730;-1.932;2022-10-16T00:26:40;3;3;
49644;PMS5003;36494;50.730;-1.932;2022-10-16T00:29:05;3;2;
49644;PMS5003;36494;50.730;-1.932;2022-10-16T00:31:31;3;3;
49644;PMS5003;36494;50.730;-1.932;2022-10-16T00:33:56;2;2;
49644;PMS5003;36494;50.730;-1.932;2022-10-16T00:36:22;2;2;
49644;PMS5003;36494;50.730;-1.932;2022-10-16T00:38:47;5;4;
49644;PMS5003;36494;50.730;-1.932;2022-10-16T00:41:12;3;3;
49644;PMS5003;36494;50.730;-1.932;2022-10-16T00:43:38;6;4;
49644;PMS5003;36494;50.730;-1.932;2022-10-16T00:46:03;5;4;
49644;PMS5003;36494;50.730;-1.932;2022-10-16T00:48:28;4;3;
49644;PMS5003;36494;50.730;-1.932;2022-10-16T00:50:53;8;7;
49644;PMS5003;36494;50.730;-1.932;2022-10-16T00:53:18;6;5;
49644;PMS5003;36494;50.730;-1.932;2022-10-16T00:55:43;3;3;
49644;PMS5003;36494;50.730;-1.932;2022-10-16T00:58:09;4;2;
49644;PMS5003;36494;50.730;-1.932;2022-10-16T01:00:34;3;3;
49644;PMS5003;36494;50.730;-1.932;2022-10-16T01:03:00;3;3;
49644;PMS5003;36494;50.730;-1.932;2022-10-16T01:05:25;5;5;
49644;PMS5003;36494;50.730;-1.932;2022-10-16T01:07:52;3;3;
49644;PMS5003;36494;50.730;-1.932;2022-10-16T01:10:18;5;4;
49644;PMS5003;36494;50.730;-1.932;2022-10-16T01:12:41;3;3;
49644;PMS5003;36494;50.730;-1.932;2022-10-16T01:15:08;4;3;
49644;PMS5003;36494;50.730;-1.932;2022-10-16T01:17:32;3;3;
49644;PMS5003;36494;50.730;-1.932;2022-10-16T01:20:00;3;3;
49644;PMS5003;36494;50.730;-1.932;2022-10-16T01:22:21;3;3;
49644;PMS5003;36494;50.730;-1.932;2022-10-16T01:24:48;5;3;
49644;PMS5003;36494;50.730;-1.932;2022-10-16T01:27:13;5;5;
49644;PMS5003;36494;50.730;-1.932;2022-10-16T01:29:39;2;2;
49644;PMS5003;36494;50.730;-1.932;2022-10-16T01:32:05;4;4;
49644;PMS5003;36494;50.730;-1.932;2022-10-16T01:34:30;4;2;
49644;PMS5003;36494;50.730;-1.932;2022-10-16T01:36:55;5;5;
49644;PMS5003;36494;50.730;-1.932;2022-10-16T01:39:19;5;5;
49644;PMS5003;36494;50.730;-1.932;2022-10-16T01:41:44;2;2;
49644;PMS5003;36494;50.730;-1.932;2022-10-16T01:44:10;5;5;
49644;PMS5003;36494;50.730;-1.932;2022-10-16T01:46:35;3;3;
49644;PMS5003;36494;50.730;-1.932;2022-10-16T01:49:00;4;3;
49644;PMS5003;36494;50.730;-1.932;2022-10-16T01:51:25;4;4;
49644;PMS5003;36494;50.730;-1.932;2022-10-16T01:53:50;4;3;
49644;PMS5003;36494;50.730;-1.932;2022-10-16T01:56:15;0;0;
49644;PMS5003;36494;50.730;-1.932;2022-10-16T01:58:42;6;4;
49644;PMS5003;36494;50.730;-1.932;2022-10-16T02:01:07;5;3;
49644;PMS5003;36494;50.730;-1.932;2022-10-16T02:03:32;3;3;
49644;PMS5003;36494;50.730;-1.932;2022-10-16T02:05:57;3;3;
49644;PMS5003;36494;50.730;-1.932;2022-10-16T02:08:23;5;3;
49644;PMS5003;36494;50.730;-1.932;2022-10-16T02:10:48;5;5;
49644;PMS5003;36494;50.730;-1.932;2022-10-16T02:13:13;4;3;
49644;PMS5003;36494;50.730;-1.932;2022-10-16T02:15:38;6;4;
49644;PMS5003;36494;50.730;-1.932;2022-10-16T02:18:04;5;4;
49644;PMS5003;36494;50.730;-1.932;2022-10-16T02:20:30;4;3;
49644;PMS5003;36494;50.730;-1.932;2022-10-16T02:22:54;4;4;
49644;PMS5003;36494;50.730;-1.932;2022-10-16T02:25:22;2;2;
49644;PMS5003;36494;50.730;-1.932;2022-10-16T02:27:48;4;3;
49644;PMS5003;36494;50.730;-1.932;2022-10-16T02:30:11;4;3;
49644;PMS5003;36494;50.730;-1.932;2022-10-16T02:32:36;4;4;
49644;PMS5003;36494;50.730;-1.932;2022-10-16T02:35:00;5;4;
49644;PMS5003;36494;50.730;-1.932;2022-10-16T02:37:26;2;2;
49644;PMS5003;36494;50.730;-1.932;2022-10-16T02:39:51;4;3;
49644;PMS5003;36494;50.730;-1.932;2022-10-16T02:42:17;3;3;
49644;PMS5003;36494;50.730;-1.932;2022-10-16T02:44:42;8;5;
49644;PMS5003;36494;50.730;-1.932;2022-10-16T02:47:08;2;2;
49644;PMS5003;36494;50.730;-1.932;2022-10-16T02:49:33;2;2;
49644;PMS5003;36494;50.730;-1.932;2022-10-16T02:51:58;2;1;
49644;PMS5003;36494;50.730;-1.932;2022-10-16T02:54:24;5;4;
49644;PMS5003;36494;50.730;-1.932;2022-10-16T02:56:49;3;2;
49644;PMS5003;36494;50.730;-1.932;2022-10-16T02:59:15;3;3;
49644;PMS5003;36494;50.730;-1.932;2022-10-16T03:01:40;4;4;
49644;PMS5003;36494;50.730;-1.932;2022-10-16T03:04:05;3;2;
49644;PMS5003;36494;50.730;-1.932;2022-10-16T03:06:31;2;2;
49644;PMS5003;36494;50.730;-1.932;2022-10-16T03:08:56;4;3;
49644;PMS5003;36494;50.730;-1.932;2022-10-16T03:11:21;4;4;
49644;PMS5003;36494;50.730;-1.932;2022-10-16T03:13:47;4;4;
49644;PMS5003;36494;50.730;-1.932;2022-10-16T03:16:12;2;2;
49644;PMS5003;36494;50.730;-1.932;2022-10-16T03:18:37;6;6;
49644;PMS5003;36494;50.730;-1.932;2022-10-16T03:21:03;3;2;
49644;PMS5003;36494;50.730;-1.932;2022-10-16T03:23:28;5;4;
49644;PMS5003;36494;50.730;-1.932;2022-10-16T03:25:53;3;2;
49644;PMS5003;36494;50.730;-1.932;2022-10-16T03:28:19;4;3;
49644;PMS5003;36494;50.730;-1.932;2022-10-16T03:30:44;4;3;
49644;PMS5003;36494;50.730;-1.932;2022-10-16T03:33:09;5;4;
49644;PMS5003;36494;50.730;-1.932;2022-10-16T03:35:35;7;7;
49644;PMS5003;36494;50.730;-1.932;2022-10-16T03:38:00;5;4;
49644;PMS5003;36494;50.730;-1.932;2022-10-16T03:40:26;4;3;
49644;PMS5003;36494;50.730;-1.932;2022-10-16T03:42:51;3;1;
49644;PMS5003;36494;50.730;-1.932;2022-10-16T03:45:16;4;4;
49644;PMS5003;36494;50.730;-1.932;2022-10-16T03:47:42;2;1;
49644;PMS5003;36494;50.730;-1.932;2022-10-16T03:50:08;3;2;
49644;PMS5003;36494;50.730;-1.932;2022-10-16T03:52:33;2;2;
49644;PMS5003;36494;50.730;-1.932;2022-10-16T03:54:58;6;4;
49644;PMS5003;36494;50.730;-1.932;2022-10-16T03:57:24;5;5;
49644;PMS5003;36494;50.730;-1.932;2022-10-16T03:59:49;3;2;
49644;PMS5003;36494;50.730;-1.932;2022-10-16T04:02:15;3;3;
49644;PMS5003;36494;50.730;-1.932;2022-10-16T04:04:40;4;4;
49644;PMS5003;36494;50.730;-1.932;2022-10-16T04:07:05;6;6;
49644;PMS5003;36494;50.730;-1.932;2022-10-16T04:09:31;4;3;
49644;PMS5003;36494;50.730;-1.932;2022-10-16T04:11:56;3;3;
49644;PMS5003;36494;50.730;-1.932;2022-10-16T04:14:22;4;2;
49644;PMS5003;36494;50.730;-1.932;2022-10-16T04:16:47;4;4;
49644;PMS5003;36494;50.730;-1.932;2022-10-16T04:19:12;3;3;
49644;PMS5003;36494;50.730;-1.932;2022-10-16T04:21:38;4;3;
49644;PMS5003;36494;50.730;-1.932;2022-10-16T04:24:03;3;1;
49644;PMS5003;36494;50.730;-1.932;2022-10-16T04:26:28;2;1;
49644;PMS5003;36494;50.730;-1.932;2022-10-16T04:28:53;3;3;
49644;PMS5003;36494;50.730;-1.932;2022-10-16T04:31:19;4;3;
49644;PMS5003;36494;50.730;-1.932;2022-10-16T04:33:44;3;3;
49644;PMS5003;36494;50.730;-1.932;2022-10-16T04:36:10;3;2;
49644;PMS5003;36494;50.730;-1.932;2022-10-16T04:38:35;3;3;
49644;PMS5003;36494;50.730;-1.932;2022-10-16T04:41:00;4;4;
49644;PMS5003;36494;50.730;-1.932;2022-10-16T04:43:25;4;4;
49644;PMS5003;36494;50.730;-1.932;2022-10-16T04:45:50;4;4;
49644;PMS5003;36494;50.730;-1.932;2022-10-16T04:48:16;5;5;
49644;PMS5003;36494;50.730;-1.932;2022-10-16T04:50:41;1;1;
49644;PMS5003;36494;50.730;-1.932;2022-10-16T04:53:06;3;3;
49644;PMS5003;36494;50.730;-1.932;2022-10-16T04:55:31;3;3;
49644;PMS5003;36494;50.730;-1.932;2022-10-16T04:57:57;5;4;
49644;PMS5003;36494;50.730;-1.932;2022-10-16T05:00:22;5;5;
49644;PMS5003;36494;50.730;-1.932;2022-10-16T05:02:49;2;2;
49644;PMS5003;36494;50.730;-1.932;2022-10-16T05:05:13;3;3;
49644;PMS5003;36494;50.730;-1.932;2022-10-16T05:07:38;3;3;
49644;PMS5003;36494;50.730;-1.932;2022-10-16T05:10:04;1;1;
49644;PMS5003;36494;50.730;-1.932;2022-10-16T05:12:29;2;2;
49644;PMS5003;36494;50.730;-1.932;2022-10-16T05:14:54;6;4;
49644;PMS5003;36494;50.730;-1.932;2022-10-16T05:17:19;6;5;
49644;PMS5003;36494;50.730;-1.932;2022-10-16T05:19:44;3;3;
49644;PMS5003;36494;50.730;-1.932;2022-10-16T05:22:09;2;1;
49644;PMS5003;36494;50.730;-1.932;2022-10-16T05:24:35;3;3;
49644;PMS5003;36494;50.730;-1.932;2022-10-16T05:27:00;3;3;
49644;PMS5003;36494;50.730;-1.932;2022-10-16T05:29:25;3;3;
49644;PMS5003;36494;50.730;-1.932;2022-10-16T05:31:51;5;5;
49644;PMS5003;36494;50.730;-1.932;2022-10-16T05:34:17;3;3;
49644;PMS5003;36494;50.730;-1.932;2022-10-16T05:36:42;3;3;
49644;PMS5003;36494;50.730;-1.932;2022-10-16T05:39:07;3;2;
49644;PMS5003;36494;50.730;-1.932;2022-10-16T05:41:33;3;2;
49644;PMS5003;36494;50.730;-1.932;2022-10-16T05:43:58;4;3;
49644;PMS5003;36494;50.730;-1.932;2022-10-16T05:46:23;3;3;
49644;PMS5003;36494;50.730;-1.932;2022-10-16T05:48:51;3;3;
49644;PMS5003;36494;50.730;-1.932;2022-10-16T05:51:14;4;2;
49644;PMS5003;36494;50.730;-1.932;2022-10-16T05:53:40;3;2;
49644;PMS5003;36494;50.730;-1.932;2022-10-16T05:56:05;3;2;
49644;PMS5003;36494;50.730;-1.932;2022-10-16T05:58:32;5;4;
49644;PMS5003;36494;50.730;-1.932;2022-10-16T06:00:57;5;5;
49644;PMS5003;36494;50.730;-1.932;2022-10-16T06:03:22;3;3;
49644;PMS5003;36494;50.730;-1.932;2022-10-16T06:05:47;4;4;
49644;PMS5003;36494;50.730;-1.932;2022-10-16T06:08:12;3;3;
49644;PMS5003;36494;50.730;-1.932;2022-10-16T06:10:37;4;4;
49644;PMS5003;36494;50.730;-1.932;2022-10-16T06:13:03;3;2;
49644;PMS5003;36494;50.730;-1.932;2022-10-16T06:15:28;2;2;
49644;PMS5003;36494;50.730;-1.932;2022-10-16T06:17:54;5;4;
49644;PMS5003;36494;50.730;-1.932;2022-10-16T06:20:19;5;3;
49644;PMS5003;36494;50.730;-1.932;2022-10-16T06:22:45;4;4;
49644;PMS5003;36494;50.730;-1.932;2022-10-16T06:25:10;5;4;
49644;PMS5003;36494;50.730;-1.932;2022-10-16T06:27:35;2;2;
49644;PMS5003;36494;50.730;-1.932;2022-10-16T06:30:00;3;2;
49644;PMS5003;36494;50.730;-1.932;2022-10-16T06:32:27;4;3;
49644;PMS5003;36494;50.730;-1.932;2022-10-16T06:34:51;5;3;
49644;PMS5003;36494;50.730;-1.932;2022-10-16T06:37:17;4;2;
49644;PMS5003;36494;50.730;-1.932;2022-10-16T06:39:42;2;2;
49644;PMS5003;36494;50.730;-1.932;2022-10-16T06:42:07;3;3;
49644;PMS5003;36494;50.730;-1.932;2022-10-16T06:44:33;3;3;
49644;PMS5003;36494;50.730;-1.932;2022-10-16T06:46:58;4;3;
49644;PMS5003;36494;50.730;-1.932;2022-10-16T06:49:23;4;4;
49644;PMS5003;36494;50.730;-1.932;2022-10-16T06:51:49;3;3;
49644;PMS5003;36494;50.730;-1.932;2022-10-16T06:54:14;3;3;
49644;PMS5003;36494;50.730;-1.932;2022-10-16T06:56:39;2;2;
49644;PMS5003;36494;50.730;-1.932;2022-10-16T06:59:04;4;4;
49644;PMS5003;36494;50.730;-1.932;2022-10-16T07:01:30;0;0;
49644;PMS5003;36494;50.730;-1.932;2022-10-16T07:03:55;3;2;
49644;PMS5003;36494;50.730;-1.932;2022-10-16T07:06:21;6;6;
49644;PMS5003;36494;50.730;-1.932;2022-10-16T07:08:46;8;5;
49644;PMS5003;36494;50.730;-1.932;2022-10-16T07:11:12;4;4;
49644;PMS5003;36494;50.730;-1.932;2022-10-16T07:13:37;5;5;
49644;PMS5003;36494;50.730;-1.932;2022-10-16T07:16:05;4;3;
49644;PMS5003;36494;50.730;-1.932;2022-10-16T07:18:27;8;6;
49644;PMS5003;36494;50.730;-1.932;2022-10-16T07:20:52;6;5;
49644;PMS5003;36494;50.730;-1.932;2022-10-16T07:23:18;4;3;
49644;PMS5003;36494;50.730;-1.932;2022-10-16T07:25:43;6;5;
49644;PMS5003;36494;50.730;-1.932;2022-10-16T07:28:08;6;5;
49644;PMS5003;36494;50.730;-1.932;2022-10-16T07:30:34;6;6;
49644;PMS5003;36494;50.730;-1.932;2022-10-16T07:33:00;5;5;
49644;PMS5003;36494;50.730;-1.932;2022-10-16T07:35:25;6;4;
49644;PMS5003;36494;50.730;-1.932;2022-10-16T07:37:50;3;3;
49644;PMS5003;36494;50.730;-1.932;2022-10-16T07:40:15;4;4;
49644;PMS5003;36494;50.730;-1.932;2022-10-16T07:42:40;7;5;
49644;PMS5003;36494;50.730;-1.932;2022-10-16T07:45:06;8;7;
49644;PMS5003;36494;50.730;-1.932;2022-10-16T07:47:31;8;8;
49644;PMS5003;36494;50.730;-1.932;2022-10-16T07:49:56;5;4;
49644;PMS5003;36494;50.730;-1.932;2022-10-16T07:52:21;8;6;
49644;PMS5003;36494;50.730;-1.932;2022-10-16T07:54:47;8;7;
49644;PMS5003;36494;50.730;-1.932;2022-10-16T07:57:12;8;6;
49644;PMS5003;36494;50.730;-1.932;2022-10-16T07:59:37;6;6;
49644;PMS5003;36494;50.730;-1.932;2022-10-16T08:02:03;9;9;
49644;PMS5003;36494;50.730;-1.932;2022-10-16T08:04:28;6;6;
49644;PMS5003;36494;50.730;-1.932;2022-10-16T08:06:54;12;11;
49644;PMS5003;36494;50.730;-1.932;2022-10-16T08:09:19;7;7;
49644;PMS5003;36494;50.730;-1.932;2022-10-16T08:11:44;6;5;
49644;PMS5003;36494;50.730;-1.932;2022-10-16T08:14:09;5;4;
49644;PMS5003;36494;50.730;-1.932;2022-10-16T08:16:35;12;8;
49644;PMS5003;36494;50.730;-1.932;2022-10-16T08:19:00;7;6;
49644;PMS5003;36494;50.730;-1.932;2022-10-16T08:21:26;4;4;
49644;PMS5003;36494;50.730;-1.932;2022-10-16T08:23:52;7;6;
49644;PMS5003;36494;50.730;-1.932;2022-10-16T08:26:16;5;5;
49644;PMS5003;36494;50.730;-1.932;2022-10-16T08:28:42;4;4;
49644;PMS5003;36494;50.730;-1.932;2022-10-16T08:31:08;3;3;
49644;PMS5003;36494;50.730;-1.932;2022-10-16T08:33:32;3;3;
49644;PMS5003;36494;50.730;-1.932;2022-10-16T08:35:57;4;4;
49644;PMS5003;36494;50.730;-1.932;2022-10-16T08:38:23;4;4;
49644;PMS5003;36494;50.730;-1.932;2022-10-16T08:40:48;4;4;
49644;PMS5003;36494;50.730;-1.932;2022-10-16T08:43:18;4;4;
49644;PMS5003;36494;50.730;-1.932;2022-10-16T08:45:41;4;2;
49644;PMS5003;36494;50.730;-1.932;2022-10-16T08:48:08;2;2;
49644;PMS5003;36494;50.730;-1.932;2022-10-16T08:50:30;5;4;
49644;PMS5003;36494;50.730;-1.932;2022-10-16T08:52:53;5;4;
49644;PMS5003;36494;50.730;-1.932;2022-10-16T08:55:25;2;2;
49644;PMS5003;36494;50.730;-1.932;2022-10-16T08:57:44;3;3;
49644;PMS5003;36494;50.730;-1.932;2022-10-16T09:00:12;3;3;
49644;PMS5003;36494;50.730;-1.932;2022-10-16T09:02:36;5;4;
49644;PMS5003;36494;50.730;-1.932;2022-10-16T09:05:02;5;4;
49644;PMS5003;36494;50.730;-1.932;2022-10-16T09:07:27;7;6;
49644;PMS5003;36494;50.730;-1.932;2022-10-16T09:09:54;3;3;
49644;PMS5003;36494;50.730;-1.932;2022-10-16T09:12:18;3;3;
49644;PMS5003;36494;50.730;-1.932;2022-10-16T09:14:47;4;3;
49644;PMS5003;36494;50.730;-1.932;2022-10-16T09:17:13;4;4;
49644;PMS5003;36494;50.730;-1.932;2022-10-16T09:19:36;4;4;
49644;PMS5003;36494;50.730;-1.932;2022-10-16T09:21:59;7;7;
49644;PMS5003;36494;50.730;-1.932;2022-10-16T09:24:25;6;5;
49644;PMS5003;36494;50.730;-1.932;2022-10-16T09:26:49;8;7;
49644;PMS5003;36494;50.730;-1.932;2022-10-16T09:29:15;6;5;
49644;PMS5003;36494;50.730;-1.932;2022-10-16T09:31:41;21;20;
49644;PMS5003;36494;50.730;-1.932;2022-10-16T09:34:06;20;19;
49644;PMS5003;36494;50.730;-1.932;2022-10-16T09:36:33;9;7;
49644;PMS5003;36494;50.730;-1.932;2022-10-16T09:39:03;6;6;
49644;PMS5003;36494;50.730;-1.932;2022-10-16T09:41:22;6;6;
49644;PMS5003;36494;50.730;-1.932;2022-10-16T09:43:49;7;7;
49644;PMS5003;36494;50.730;-1.932;2022-10-16T09:48:43;5;4;
49644;PMS5003;36494;50.730;-1.932;2022-10-16T09:51:06;5;4;
49644;PMS5003;36494;50.730;-1.932;2022-10-16T09:53:40;5;4;
49644;PMS5003;36494;50.730;-1.932;2022-10-16T09:55:57;4;4;
49644;PMS5003;36494;50.730;-1.932;2022-10-16T09:58:23;4;4;
49644;PMS5003;36494;50.730;-1.932;2022-10-16T10:00:48;3;3;
49644;PMS5003;36494;50.730;-1.932;2022-10-16T10:03:15;4;2;
49644;PMS5003;36494;50.730;-1.932;2022-10-16T10:05:39;4;2;
49644;PMS5003;36494;50.730;-1.932;2022-10-16T10:08:05;6;6;
49644;PMS5003;36494;50.730;-1.932;2022-10-16T10:10:30;4;3;
49644;PMS5003;36494;50.730;-1.932;2022-10-16T10:12:55;3;3;
49644;PMS5003;36494;50.730;-1.932;2022-10-16T10:15:21;3;2;
49644;PMS5003;36494;50.730;-1.932;2022-10-16T10:17:47;2;2;
49644;PMS5003;36494;50.730;-1.932;2022-10-16T10:20:15;3;3;
49644;PMS5003;36494;50.730;-1.932;2022-10-16T10:22:40;4;4;
49644;PMS5003;36494;50.730;-1.932;2022-10-16T10:27:32;5;4;
49644;PMS5003;36494;50.730;-1.932;2022-10-16T10:29:56;2;2;
49644;PMS5003;36494;50.730;-1.932;2022-10-16T10:32:22;3;3;
49644;PMS5003;36494;50.730;-1.932;2022-10-16T10:34:49;3;3;
49644;PMS5003;36494;50.730;-1.932;2022-10-16T10:37:13;9;9;
49644;PMS5003;36494;50.730;-1.932;2022-10-16T10:39:38;3;3;
49644;PMS5003;36494;50.730;-1.932;2022-10-16T10:42:08;5;2;
49644;PMS5003;36494;50.730;-1.932;2022-10-16T10:44:31;2;2;
49644;PMS5003;36494;50.730;-1.932;2022-10-16T10:46:54;3;3;
49644;PMS5003;36494;50.730;-1.932;2022-10-16T10:49:25;4;4;
49644;PMS5003;36494;50.730;-1.932;2022-10-16T10:51:44;1;1;
49644;PMS5003;36494;50.730;-1.932;2022-10-16T10:54:11;2;2;
49644;PMS5003;36494;50.730;-1.932;2022-10-16T10:56:40;6;6;
49644;PMS5003;36494;50.730;-1.932;2022-10-16T10:59:04;5;3;
49644;PMS5003;36494;50.730;-1.932;2022-10-16T11:01:26;5;5;
49644;PMS5003;36494;50.730;-1.932;2022-10-16T11:03:56;10;9;
49644;PMS5003;36494;50.730;-1.932;2022-10-16T11:06:17;12;11;
49644;PMS5003;36494;50.730;-1.932;2022-10-16T11:08:43;9;8;
49644;PMS5003;36494;50.730;-1.932;2022-10-16T11:11:11;10;9;
49644;PMS5003;36494;50.730;-1.932;2022-10-16T11:13:35;6;5;
49644;PMS5003;36494;50.730;-1.932;2022-10-16T11:16:00;8;8;
49644;PMS5003;36494;50.730;-1.932;2022-10-16T11:18:27;3;3;
49644;PMS5003;36494;50.730;-1.932;2022-10-16T11:20:52;3;3;
49644;PMS5003;36494;50.730;-1.932;2022-10-16T11:23:18;14;13;
49644;PMS5003;36494;50.730;-1.932;2022-10-16T11:25:41;3;3;
49644;PMS5003;36494;50.730;-1.932;2022-10-16T11:28:08;8;7;
49644;PMS5003;36494;50.730;-1.932;2022-10-16T11:30:33;8;8;
49644;PMS5003;36494;50.730;-1.932;2022-10-16T11:33:02;7;7;
49644;PMS5003;36494;50.730;-1.932;2022-10-16T11:35:24;2;2;
49644;PMS5003;36494;50.730;-1.932;2022-10-16T11:37:48;8;7;
49644;PMS5003;36494;50.730;-1.932;2022-10-16T11:40:17;4;4;
49644;PMS5003;36494;50.730;-1.932;2022-10-16T11:42:39;5;4;
49644;PMS5003;36494;50.730;-1.932;2022-10-16T11:45:07;2;2;
49644;PMS5003;36494;50.730;-1.932;2022-10-16T11:47:31;5;4;
49644;PMS5003;36494;50.730;-1.932;2022-10-16T11:49:58;2;2;
49644;PMS5003;36494;50.730;-1.932;2022-10-16T11:52:22;4;4;
49644;PMS5003;36494;50.730;-1.932;2022-10-16T11:54:48;20;19;
49644;PMS5003;36494;50.730;-1.932;2022-10-16T11:57:12;4;4;
49644;PMS5003;36494;50.730;-1.932;2022-10-16T11:59:38;32;28;
49644;PMS5003;36494;50.730;-1.932;2022-10-16T12:02:07;10;8;
49644;PMS5003;36494;50.730;-1.932;2022-10-16T12:04:29;16;15;
49644;PMS5003;36494;50.730;-1.932;2022-10-16T12:06:55;12;12;
49644;PMS5003;36494;50.730;-1.932;2022-10-16T12:09:20;11;9;
49644;PMS5003;36494;50.730;-1.932;2022-10-16T12:11:44;15;15;
49644;PMS5003;36494;50.730;-1.932;2022-10-16T12:14:20;22;22;
49644;PMS5003;36494;50.730;-1.932;2022-10-16T12:16:37;22;21;
49644;PMS5003;36494;50.730;-1.932;2022-10-16T12:21:29;17;15;
49644;PMS5003;36494;50.730;-1.932;2022-10-16T12:23:51;8;7;
49644;PMS5003;36494;50.730;-1.932;2022-10-16T12:28:42;18;16;
49644;PMS5003;36494;50.730;-1.932;2022-10-16T12:31:08;6;6;
49644;PMS5003;36494;50.730;-1.932;2022-10-16T12:33:33;6;5;
49644;PMS5003;36494;50.730;-1.932;2022-10-16T12:35:58;5;4;
49644;PMS5003;36494;50.730;-1.932;2022-10-16T12:38:25;4;3;
49644;PMS5003;36494;50.730;-1.932;2022-10-16T12:45:39;6;4;
49644;PMS5003;36494;50.730;-1.932;2022-10-16T12:48:17;4;3;
49644;PMS5003;36494;50.730;-1.932;2022-10-16T12:50:31;3;3;
49644;PMS5003;36494;50.730;-1.932;2022-10-16T12:52:54;4;4;
49644;PMS5003;36494;50.730;-1.932;2022-10-16T12:55:20;4;4;
49644;PMS5003;36494;50.730;-1.932;2022-10-16T12:57:48;2;2;
49644;PMS5003;36494;50.730;-1.932;2022-10-16T13:00:13;4;3;
49644;PMS5003;36494;50.730;-1.932;2022-10-16T13:02:41;4;4;
49644;PMS5003;36494;50.730;-1.932;2022-10-16T13:05:04;4;4;
49644;PMS5003;36494;50.730;-1.932;2022-10-16T13:07:31;3;3;
49644;PMS5003;36494;50.730;-1.932;2022-10-16T13:09:55;3;2;
49644;PMS5003;36494;50.730;-1.932;2022-10-16T13:12:22;2;2;
49644;PMS5003;36494;50.730;-1.932;2022-10-16T13:14:48;2;2;
49644;PMS5003;36494;50.730;-1.932;2022-10-16T13:17:10;4;3;
49644;PMS5003;36494;50.730;-1.932;2022-10-16T13:19:35;5;5;
49644;PMS5003;36494;50.730;-1.932;2022-10-16T13:22:00;6;6;
49644;PMS5003;36494;50.730;-1.932;2022-10-16T13:24:27;3;3;
49644;PMS5003;36494;50.730;-1.932;2022-10-16T13:26:52;5;4;
49644;PMS5003;36494;50.730;-1.932;2022-10-16T13:29:16;3;2;
49644;PMS5003;36494;50.730;-1.932;2022-10-16T13:31:41;5;5;
49644;PMS5003;36494;50.730;-1.932;2022-10-16T13:34:10;7;4;
49644;PMS5003;36494;50.730;-1.932;2022-10-16T13:36:34;4;4;
49644;PMS5003;36494;50.730;-1.932;2022-10-16T13:39:01;8;7;
49644;PMS5003;36494;50.730;-1.932;2022-10-16T13:41:22;3;3;
49644;PMS5003;36494;50.730;-1.932;2022-10-16T13:43:49;4;4;
49644;PMS5003;36494;50.730;-1.932;2022-10-16T13:46:14;4;3;
49644;PMS5003;36494;50.730;-1.932;2022-10-16T13:48:38;5;3;
49644;PMS5003;36494;50.730;-1.932;2022-10-16T13:51:05;6;4;
49644;PMS5003;36494;50.730;-1.932;2022-10-16T13:53:30;3;3;
49644;PMS5003;36494;50.730;-1.932;2022-10-16T13:55:55;11;11;
49644;PMS5003;36494;50.730;-1.932;2022-10-16T13:58:20;8;5;
49644;PMS5003;36494;50.730;-1.932;2022-10-16T14:00:53;9;6;
49644;PMS5003;36494;50.730;-1.932;2022-10-16T14:03:12;9;7;
49644;PMS5003;36494;50.730;-1.932;2022-10-16T14:05:36;7;6;
49644;PMS5003;36494;50.730;-1.932;2022-10-16T14:08:02;5;4;
49644;PMS5003;36494;50.730;-1.932;2022-10-16T14:10:28;12;10;
49644;PMS5003;36494;50.730;-1.932;2022-10-16T14:12:54;6;5;
49644;PMS5003;36494;50.730;-1.932;2022-10-16T14:15:18;5;4;
49644;PMS5003;36494;50.730;-1.932;2022-10-16T14:17:43;4;3;
49644;PMS5003;36494;50.730;-1.932;2022-10-16T14:20:12;4;3;
49644;PMS5003;36494;50.730;-1.932;2022-10-16T14:22:34;3;2;
49644;PMS5003;36494;50.730;-1.932;2022-10-16T14:25:00;4;4;
49644;PMS5003;36494;50.730;-1.932;2022-10-16T14:27:28;6;5;
49644;PMS5003;36494;50.730;-1.932;2022-10-16T14:30:01;7;6;
49644;PMS5003;36494;50.730;-1.932;2022-10-16T14:32:20;5;5;
49644;PMS5003;36494;50.730;-1.932;2022-10-16T14:34:42;9;8;
49644;PMS5003;36494;50.730;-1.932;2022-10-16T14:37:08;6;6;
49644;PMS5003;36494;50.730;-1.932;2022-10-16T14:39:33;7;7;
49644;PMS5003;36494;50.730;-1.932;2022-10-16T14:41:59;12;11;
49644;PMS5003;36494;50.730;-1.932;2022-10-16T14:44:27;5;5;
49644;PMS5003;36494;50.730;-1.932;2022-10-16T14:46:49;18;16;
49644;PMS5003;36494;50.730;-1.932;2022-10-16T14:49:15;8;7;
49644;PMS5003;36494;50.730;-1.932;2022-10-16T14:51:40;13;12;
49644;PMS5003;36494;50.730;-1.932;2022-10-16T14:54:05;8;8;
49644;PMS5003;36494;50.730;-1.932;2022-10-16T14:56:44;14;12;
49644;PMS5003;36494;50.730;-1.932;2022-10-16T14:58:56;12;11;
49644;PMS5003;36494;50.730;-1.932;2022-10-16T15:01:22;13;13;
49644;PMS5003;36494;50.730;-1.932;2022-10-16T15:03:47;22;21;
49644;PMS5003;36494;50.730;-1.932;2022-10-16T15:06:12;16;15;
49644;PMS5003;36494;50.730;-1.932;2022-10-16T15:08:37;23;23;
49644;PMS5003;36494;50.730;-1.932;2022-10-16T15:11:03;13;11;
49644;PMS5003;36494;50.730;-1.932;2022-10-16T15:13:28;24;23;
49644;PMS5003;36494;50.730;-1.932;2022-10-16T15:15:54;28;28;
49644;PMS5003;36494;50.730;-1.932;2022-10-16T15:18:20;18;17;
49644;PMS5003;36494;50.730;-1.932;2022-10-16T15:20:47;10;10;
49644;PMS5003;36494;50.730;-1.932;2022-10-16T15:23:12;9;9;
49644;PMS5003;36494;50.730;-1.932;2022-10-16T15:25:37;10;10;
49644;PMS5003;36494;50.730;-1.932;2022-10-16T15:28:02;14;13;
49644;PMS5003;36494;50.730;-1.932;2022-10-16T15:30:27;7;7;
49644;PMS5003;36494;50.730;-1.932;2022-10-16T15:32:52;18;17;
49644;PMS5003;36494;50.730;-1.932;2022-10-16T15:35:18;7;7;
49644;PMS5003;36494;50.730;-1.932;2022-10-16T15:37:43;8;8;
49644;PMS5003;36494;50.730;-1.932;2022-10-16T15:40:09;9;9;
49644;PMS5003;36494;50.730;-1.932;2022-10-16T15:42:33;8;8;
49644;PMS5003;36494;50.730;-1.932;2022-10-16T15:44:59;7;7;
49644;PMS5003;36494;50.730;-1.932;2022-10-16T15:47:25;9;7;
49644;PMS5003;36494;50.730;-1.932;2022-10-16T15:49:50;4;4;
49644;PMS5003;36494;50.730;-1.932;2022-10-16T15:52:15;3;3;
49644;PMS5003;36494;50.730;-1.932;2022-10-16T15:54:41;12;12;
49644;PMS5003;36494;50.730;-1.932;2022-10-16T15:57:06;10;9;
49644;PMS5003;36494;50.730;-1.932;2022-10-16T15:59:32;9;8;
49644;PMS5003;36494;50.730;-1.932;2022-10-16T16:01:58;9;8;
49644;PMS5003;36494;50.730;-1.932;2022-10-16T16:04:24;7;7;
49644;PMS5003;36494;50.730;-1.932;2022-10-16T16:06:49;5;5;
49644;PMS5003;36494;50.730;-1.932;2022-10-16T16:09:14;6;5;
49644;PMS5003;36494;50.730;-1.932;2022-10-16T16:11:39;8;8;
49644;PMS5003;36494;50.730;-1.932;2022-10-16T16:14:05;5;5;
49644;PMS5003;36494;50.730;-1.932;2022-10-16T16:16:31;10;10;
49644;PMS5003;36494;50.730;-1.932;2022-10-16T16:18:57;10;10;
49644;PMS5003;36494;50.730;-1.932;2022-10-16T16:21:22;8;7;
49644;PMS5003;36494;50.730;-1.932;2022-10-16T16:23:48;9;8;
49644;PMS5003;36494;50.730;-1.932;2022-10-16T16:26:14;9;8;
49644;PMS5003;36494;50.730;-1.932;2022-10-16T16:28:38;11;9;
49644;PMS5003;36494;50.730;-1.932;2022-10-16T16:31:03;13;13;